sensor_id;sensor_type;location;lat;lon;timestamp;temperature;humidity
21487;DHT22;10905;50.822;4.336;2023-02-18T00:01:59;12.00;99.90
21487;DHT22;10905;50.822;4.336;2023-02-18T00:04:25;12.00;99.90
21487;DHT22;10905;50.822;4.336;2023-02-18T00:06:53;12.00;99.90
21487;DHT22;10905;50.822;4.336;2023-02-18T00:09:20;12.00;99.90
21487;DHT22;10905;50.822;4.336;2023-02-18T00:11:45;12.00;99.90
21487;DHT22;10905;50.822;4.336;2023-02-18T00:14:14;12.00;99.90
21487;DHT22;10905;50.822;4.336;2023-02-18T00:16:41;12.00;99.90
21487;DHT22;10905;50.822;4.336;2023-02-18T00:19:11;12.00;99.90
21487;DHT22;10905;50.822;4.336;2023-02-18T00:21:38;11.90;99.90
21487;DHT22;10905;50.822;4.336;2023-02-18T00:24:06;11.90;99.90
21487;DHT22;10905;50.822;4.336;2023-02-18T00:26:34;11.90;99.90
21487;DHT22;10905;50.822;4.336;2023-02-18T00:29:00;11.90;99.90
21487;DHT22;10905;50.822;4.336;2023-02-18T00:31:34;11.80;99.90
21487;DHT22;10905;50.822;4.336;2023-02-18T00:34:02;11.80;99.90
21487;DHT22;10905;50.822;4.336;2023-02-18T00:36:31;11.80;99.90
21487;DHT22;10905;50.822;4.336;2023-02-18T00:38:59;11.90;99.90
21487;DHT22;10905;50.822;4.336;2023-02-18T00:41:26;11.90;99.90
21487;DHT22;10905;50.822;4.336;2023-02-18T00:43:55;11.90;99.90
21487;DHT22;10905;50.822;4.336;2023-02-18T00:46:21;11.90;99.90
21487;DHT22;10905;50.822;4.336;2023-02-18T00:48:47;11.80;99.90
21487;DHT22;10905;50.822;4.336;2023-02-18T00:51:16;11.90;99.90
21487;DHT22;10905;50.822;4.336;2023-02-18T00:53:43;11.80;99.90
21487;DHT22;10905;50.822;4.336;2023-02-18T00:56:09;11.80;99.90
21487;DHT22;10905;50.822;4.336;2023-02-18T00:58:35;11.70;99.90
21487;DHT22;10905;50.822;4.336;2023-02-18T01:01:03;11.70;99.90
21487;DHT22;10905;50.822;4.336;2023-02-18T01:03:31;11.70;99.90
21487;DHT22;10905;50.822;4.336;2023-02-18T01:05:58;11.70;99.90
21487;DHT22;10905;50.822;4.336;2023-02-18T01:08:24;11.80;99.90
21487;DHT22;10905;50.822;4.336;2023-02-18T01:10:56;11.80;99.90
21487;DHT22;10905;50.822;4.336;2023-02-18T01:13:23;11.70;99.90
21487;DHT22;10905;50.822;4.336;2023-02-18T01:15:49;11.70;99.90
21487;DHT22;10905;50.822;4.336;2023-02-18T01:18:16;11.70;99.90
21487;DHT22;10905;50.822;4.336;2023-02-18T01:20:43;11.80;99.90
21487;DHT22;10905;50.822;4.336;2023-02-18T01:23:09;11.80;99.90
21487;DHT22;10905;50.822;4.336;2023-02-18T01:25:35;11.80;99.90
21487;DHT22;10905;50.822;4.336;2023-02-18T01:28:02;11.80;99.90
21487;DHT22;10905;50.822;4.336;2023-02-18T01:30:27;11.70;99.90
21487;DHT22;10905;50.822;4.336;2023-02-18T01:32:55;11.70;99.90
21487;DHT22;10905;50.822;4.336;2023-02-18T01:35:22;11.70;99.90
21487;DHT22;10905;50.822;4.336;2023-02-18T01:37:49;11.70;99.90
21487;DHT22;10905;50.822;4.336;2023-02-18T01:40:20;11.70;99.90
21487;DHT22;10905;50.822;4.336;2023-02-18T01:42:46;11.80;99.90
21487;DHT22;10905;50.822;4.336;2023-02-18T01:50:31;11.50;99.90
21487;DHT22;10905;50.822;4.336;2023-02-18T01:52:58;11.40;99.90
21487;DHT22;10905;50.822;4.336;2023-02-18T01:55:25;11.50;99.90
21487;DHT22;10905;50.822;4.336;2023-02-18T01:57:51;11.50;99.90
21487;DHT22;10905;50.822;4.336;2023-02-18T02:00:17;11.50;99.90
21487;DHT22;10905;50.822;4.336;2023-02-18T02:02:47;11.50;99.90
21487;DHT22;10905;50.822;4.336;2023-02-18T02:05:14;11.50;99.90
21487;DHT22;10905;50.822;4.336;2023-02-18T02:07:41;11.50;99.90
21487;DHT22;10905;50.822;4.336;2023-02-18T02:10:09;11.50;99.90
21487;DHT22;10905;50.822;4.336;2023-02-18T02:35:09;11.50;99.90
21487;DHT22;10905;50.822;4.336;2023-02-18T02:40:38;11.50;99.90
21487;DHT22;10905;50.822;4.336;2023-02-18T02:48:27;11.50;99.90
21487;DHT22;10905;50.822;4.336;2023-02-18T02:53:40;11.60;99.90
21487;DHT22;10905;50.822;4.336;2023-02-18T02:56:08;11.60;99.90
21487;DHT22;10905;50.822;4.336;2023-02-18T02:58:35;11.50;99.90
21487;DHT22;10905;50.822;4.336;2023-02-18T03:06:26;11.50;99.90
21487;DHT22;10905;50.822;4.336;2023-02-18T03:09:03;11.50;99.90
21487;DHT22;10905;50.822;4.336;2023-02-18T03:11:43;11.50;99.90
21487;DHT22;10905;50.822;4.336;2023-02-18T03:17:31;11.50;99.90
21487;DHT22;10905;50.822;4.336;2023-02-18T03:20:09;11.50;99.90
21487;DHT22;10905;50.822;4.336;2023-02-18T03:22:40;11.50;99.90
21487;DHT22;10905;50.822;4.336;2023-02-18T03:25:09;11.50;99.90
21487;DHT22;10905;50.822;4.336;2023-02-18T03:28:04;11.50;99.90
21487;DHT22;10905;50.822;4.336;2023-02-18T03:30:32;11.40;99.90
21487;DHT22;10905;50.822;4.336;2023-02-18T03:33:02;11.40;99.90
21487;DHT22;10905;50.822;4.336;2023-02-18T03:35:29;11.30;99.90
21487;DHT22;10905;50.822;4.336;2023-02-18T03:38:44;11.40;99.90
21487;DHT22;10905;50.822;4.336;2023-02-18T03:40:51;11.40;99.90
21487;DHT22;10905;50.822;4.336;2023-02-18T03:43:16;11.40;99.90
21487;DHT22;10905;50.822;4.336;2023-02-18T03:45:44;11.40;99.90
21487;DHT22;10905;50.822;4.336;2023-02-18T03:48:10;11.40;99.90
21487;DHT22;10905;50.822;4.336;2023-02-18T03:50:36;11.40;99.90
21487;DHT22;10905;50.822;4.336;2023-02-18T03:53:02;11.40;99.90
21487;DHT22;10905;50.822;4.336;2023-02-18T03:55:27;11.30;99.90
21487;DHT22;10905;50.822;4.336;2023-02-18T03:57:53;11.30;99.90
21487;DHT22;10905;50.822;4.336;2023-02-18T04:00:19;11.20;99.90
21487;DHT22;10905;50.822;4.336;2023-02-18T04:02:44;11.30;99.90
21487;DHT22;10905;50.822;4.336;2023-02-18T04:05:11;11.30;99.90
21487;DHT22;10905;50.822;4.336;2023-02-18T04:07:37;11.20;99.90
21487;DHT22;10905;50.822;4.336;2023-02-18T04:10:04;11.30;99.90
21487;DHT22;10905;50.822;4.336;2023-02-18T04:12:30;11.30;99.90
21487;DHT22;10905;50.822;4.336;2023-02-18T04:14:55;11.30;99.90
21487;DHT22;10905;50.822;4.336;2023-02-18T04:17:21;11.30;99.90
21487;DHT22;10905;50.822;4.336;2023-02-18T04:19:47;11.30;99.90
21487;DHT22;10905;50.822;4.336;2023-02-18T04:22:12;11.20;99.90
21487;DHT22;10905;50.822;4.336;2023-02-18T04:24:38;11.20;99.90
21487;DHT22;10905;50.822;4.336;2023-02-18T04:27:03;11.20;99.90
21487;DHT22;10905;50.822;4.336;2023-02-18T04:29:29;11.20;99.90
21487;DHT22;10905;50.822;4.336;2023-02-18T04:31:55;11.20;99.90
21487;DHT22;10905;50.822;4.336;2023-02-18T04:34:21;11.20;99.90
21487;DHT22;10905;50.822;4.336;2023-02-18T04:36:47;11.20;99.90
21487;DHT22;10905;50.822;4.336;2023-02-18T04:39:12;11.10;99.90
21487;DHT22;10905;50.822;4.336;2023-02-18T04:41:38;11.10;99.90
21487;DHT22;10905;50.822;4.336;2023-02-18T04:44:04;11.10;99.90
21487;DHT22;10905;50.822;4.336;2023-02-18T04:46:30;11.10;99.90
21487;DHT22;10905;50.822;4.336;2023-02-18T04:48:55;11.00;99.90
21487;DHT22;10905;50.822;4.336;2023-02-18T04:51:21;11.10;99.90
21487;DHT22;10905;50.822;4.336;2023-02-18T04:53:47;11.10;99.90
21487;DHT22;10905;50.822;4.336;2023-02-18T04:56:12;11.10;99.90
21487;DHT22;10905;50.822;4.336;2023-02-18T04:58:38;11.10;99.90
21487;DHT22;10905;50.822;4.336;2023-02-18T05:01:04;11.00;99.90
21487;DHT22;10905;50.822;4.336;2023-02-18T05:03:31;11.00;99.90
21487;DHT22;10905;50.822;4.336;2023-02-18T05:05:56;11.00;99.90
21487;DHT22;10905;50.822;4.336;2023-02-18T05:08:22;11.00;99.90
21487;DHT22;10905;50.822;4.336;2023-02-18T05:10:48;11.00;99.90
21487;DHT22;10905;50.822;4.336;2023-02-18T05:13:14;11.10;99.90
21487;DHT22;10905;50.822;4.336;2023-02-18T05:15:40;11.10;99.90
21487;DHT22;10905;50.822;4.336;2023-02-18T05:18:06;11.10;99.90
21487;DHT22;10905;50.822;4.336;2023-02-18T05:20:32;11.00;99.90
21487;DHT22;10905;50.822;4.336;2023-02-18T05:22:58;10.90;99.90
21487;DHT22;10905;50.822;4.336;2023-02-18T05:25:24;10.90;99.90
21487;DHT22;10905;50.822;4.336;2023-02-18T05:27:49;10.80;99.90
21487;DHT22;10905;50.822;4.336;2023-02-18T05:30:15;10.80;99.90
21487;DHT22;10905;50.822;4.336;2023-02-18T05:32:41;10.70;99.90
21487;DHT22;10905;50.822;4.336;2023-02-18T05:35:07;10.70;99.90
21487;DHT22;10905;50.822;4.336;2023-02-18T05:37:33;10.70;99.90
21487;DHT22;10905;50.822;4.336;2023-02-18T05:39:58;10.70;99.90
21487;DHT22;10905;50.822;4.336;2023-02-18T05:42:24;10.70;99.90
21487;DHT22;10905;50.822;4.336;2023-02-18T05:44:51;10.70;99.90
21487;DHT22;10905;50.822;4.336;2023-02-18T05:47:17;10.70;99.90
21487;DHT22;10905;50.822;4.336;2023-02-18T05:49:43;10.70;99.90
21487;DHT22;10905;50.822;4.336;2023-02-18T05:52:09;10.70;99.90
21487;DHT22;10905;50.822;4.336;2023-02-18T05:54:37;10.70;99.90
21487;DHT22;10905;50.822;4.336;2023-02-18T05:57:03;10.60;99.90
21487;DHT22;10905;50.822;4.336;2023-02-18T05:59:29;10.60;99.90
21487;DHT22;10905;50.822;4.336;2023-02-18T06:01:55;10.60;99.90
21487;DHT22;10905;50.822;4.336;2023-02-18T06:04:21;10.60;99.90
21487;DHT22;10905;50.822;4.336;2023-02-18T06:06:46;10.60;99.90
21487;DHT22;10905;50.822;4.336;2023-02-18T06:09:12;10.60;99.90
21487;DHT22;10905;50.822;4.336;2023-02-18T06:11:38;10.50;99.90
21487;DHT22;10905;50.822;4.336;2023-02-18T06:14:05;10.50;99.90
21487;DHT22;10905;50.822;4.336;2023-02-18T06:16:31;10.60;99.90
21487;DHT22;10905;50.822;4.336;2023-02-18T06:18:56;10.60;99.90
21487;DHT22;10905;50.822;4.336;2023-02-18T06:21:22;10.60;99.90
21487;DHT22;10905;50.822;4.336;2023-02-18T06:23:48;10.60;99.90
21487;DHT22;10905;50.822;4.336;2023-02-18T06:26:14;10.60;99.90
21487;DHT22;10905;50.822;4.336;2023-02-18T06:28:40;10.60;99.90
21487;DHT22;10905;50.822;4.336;2023-02-18T06:31:07;10.60;99.90
21487;DHT22;10905;50.822;4.336;2023-02-18T06:33:32;10.50;99.90
21487;DHT22;10905;50.822;4.336;2023-02-18T06:36:01;10.50;99.90
21487;DHT22;10905;50.822;4.336;2023-02-18T06:38:28;10.60;99.90
21487;DHT22;10905;50.822;4.336;2023-02-18T06:40:53;10.60;99.90
21487;DHT22;10905;50.822;4.336;2023-02-18T06:43:20;10.60;99.90
21487;DHT22;10905;50.822;4.336;2023-02-18T06:45:45;10.60;99.90
21487;DHT22;10905;50.822;4.336;2023-02-18T06:48:12;10.60;99.90
21487;DHT22;10905;50.822;4.336;2023-02-18T06:50:38;10.60;99.90
21487;DHT22;10905;50.822;4.336;2023-02-18T06:53:04;10.70;99.90
21487;DHT22;10905;50.822;4.336;2023-02-18T06:55:30;10.70;99.90
21487;DHT22;10905;50.822;4.336;2023-02-18T06:57:58;10.70;99.90
21487;DHT22;10905;50.822;4.336;2023-02-18T07:00:27;10.70;99.90
21487;DHT22;10905;50.822;4.336;2023-02-18T07:02:53;10.70;99.90
21487;DHT22;10905;50.822;4.336;2023-02-18T07:05:18;10.70;99.90
21487;DHT22;10905;50.822;4.336;2023-02-18T07:07:44;10.80;99.90
21487;DHT22;10905;50.822;4.336;2023-02-18T07:10:10;10.80;99.90
21487;DHT22;10905;50.822;4.336;2023-02-18T07:12:36;10.80;99.90
21487;DHT22;10905;50.822;4.336;2023-02-18T07:15:02;10.80;99.90
21487;DHT22;10905;50.822;4.336;2023-02-18T07:17:27;10.80;99.90
21487;DHT22;10905;50.822;4.336;2023-02-18T07:19:53;10.80;99.90
21487;DHT22;10905;50.822;4.336;2023-02-18T07:22:20;10.80;99.90
21487;DHT22;10905;50.822;4.336;2023-02-18T07:24:49;10.80;99.90
21487;DHT22;10905;50.822;4.336;2023-02-18T07:27:15;10.70;99.90
21487;DHT22;10905;50.822;4.336;2023-02-18T07:29:40;10.70;99.90
21487;DHT22;10905;50.822;4.336;2023-02-18T07:32:06;10.70;99.90
21487;DHT22;10905;50.822;4.336;2023-02-18T07:34:31;10.80;99.90
21487;DHT22;10905;50.822;4.336;2023-02-18T07:36:57;10.80;99.90
21487;DHT22;10905;50.822;4.336;2023-02-18T07:39:24;10.80;99.90
21487;DHT22;10905;50.822;4.336;2023-02-18T07:41:51;10.70;99.90
21487;DHT22;10905;50.822;4.336;2023-02-18T07:44:16;10.70;99.90
21487;DHT22;10905;50.822;4.336;2023-02-18T07:46:42;10.70;99.90
21487;DHT22;10905;50.822;4.336;2023-02-18T07:49:08;10.80;99.90
21487;DHT22;10905;50.822;4.336;2023-02-18T07:51:34;10.80;99.90
21487;DHT22;10905;50.822;4.336;2023-02-18T07:53:59;10.90;99.90
21487;DHT22;10905;50.822;4.336;2023-02-18T07:56:25;11.00;99.90
21487;DHT22;10905;50.822;4.336;2023-02-18T07:58:51;11.00;99.90
21487;DHT22;10905;50.822;4.336;2023-02-18T08:01:16;10.90;99.90
21487;DHT22;10905;50.822;4.336;2023-02-18T08:03:49;11.00;99.90
21487;DHT22;10905;50.822;4.336;2023-02-18T08:06:39;11.00;99.90
21487;DHT22;10905;50.822;4.336;2023-02-18T08:09:31;11.00;99.90
21487;DHT22;10905;50.822;4.336;2023-02-18T08:12:36;11.00;99.90
21487;DHT22;10905;50.822;4.336;2023-02-18T08:16:01;10.90;99.90
21487;DHT22;10905;50.822;4.336;2023-02-18T08:18:43;11.00;99.90
21487;DHT22;10905;50.822;4.336;2023-02-18T08:21:09;11.10;99.90
21487;DHT22;10905;50.822;4.336;2023-02-18T08:23:34;11.10;99.90
21487;DHT22;10905;50.822;4.336;2023-02-18T08:26:00;11.10;99.90
21487;DHT22;10905;50.822;4.336;2023-02-18T08:28:26;11.10;99.90
21487;DHT22;10905;50.822;4.336;2023-02-18T08:30:53;11.20;99.90
21487;DHT22;10905;50.822;4.336;2023-02-18T08:33:29;11.20;99.90
21487;DHT22;10905;50.822;4.336;2023-02-18T08:36:07;11.20;99.90
21487;DHT22;10905;50.822;4.336;2023-02-18T08:38:36;11.10;99.90
21487;DHT22;10905;50.822;4.336;2023-02-18T08:44:57;11.20;99.90
21487;DHT22;10905;50.822;4.336;2023-02-18T08:48:16;11.20;99.90
21487;DHT22;10905;50.822;4.336;2023-02-18T08:54:42;11.20;99.90
21487;DHT22;10905;50.822;4.336;2023-02-18T08:57:32;11.30;99.90
21487;DHT22;10905;50.822;4.336;2023-02-18T09:00:19;11.30;99.90
21487;DHT22;10905;50.822;4.336;2023-02-18T09:03:30;11.20;99.90
21487;DHT22;10905;50.822;4.336;2023-02-18T09:07:06;11.20;99.90
21487;DHT22;10905;50.822;4.336;2023-02-18T09:09:47;11.20;99.90
21487;DHT22;10905;50.822;4.336;2023-02-18T09:13:13;11.30;99.90
21487;DHT22;10905;50.822;4.336;2023-02-18T09:17:04;11.50;99.90
21487;DHT22;10905;50.822;4.336;2023-02-18T09:20:38;11.60;99.90
21487;DHT22;10905;50.822;4.336;2023-02-18T09:27:41;11.70;99.90
21487;DHT22;10905;50.822;4.336;2023-02-18T09:30:54;11.60;99.90
21487;DHT22;10905;50.822;4.336;2023-02-18T09:34:28;11.60;99.90
21487;DHT22;10905;50.822;4.336;2023-02-18T09:48:49;11.60;99.90
21487;DHT22;10905;50.822;4.336;2023-02-18T09:51:24;11.50;99.90
21487;DHT22;10905;50.822;4.336;2023-02-18T09:58:04;11.60;99.90
21487;DHT22;10905;50.822;4.336;2023-02-18T10:04:44;11.50;99.90
21487;DHT22;10905;50.822;4.336;2023-02-18T10:08:15;11.50;99.90
21487;DHT22;10905;50.822;4.336;2023-02-18T10:11:54;11.60;99.90
21487;DHT22;10905;50.822;4.336;2023-02-18T10:14:58;11.60;99.90
21487;DHT22;10905;50.822;4.336;2023-02-18T10:21:24;11.80;99.90
21487;DHT22;10905;50.822;4.336;2023-02-18T10:27:40;11.90;99.90
21487;DHT22;10905;50.822;4.336;2023-02-18T10:30:28;11.90;99.90
21487;DHT22;10905;50.822;4.336;2023-02-18T10:33:41;12.00;99.90
21487;DHT22;10905;50.822;4.336;2023-02-18T10:39:14;12.00;99.90
21487;DHT22;10905;50.822;4.336;2023-02-18T10:43:32;12.00;99.90
21487;DHT22;10905;50.822;4.336;2023-02-18T10:45:54;12.00;99.90
21487;DHT22;10905;50.822;4.336;2023-02-18T10:52:49;11.80;99.90
21487;DHT22;10905;50.822;4.336;2023-02-18T10:56:32;11.90;99.90
21487;DHT22;10905;50.822;4.336;2023-02-18T11:03:24;11.90;99.90
21487;DHT22;10905;50.822;4.336;2023-02-18T11:06:40;12.00;99.90
21487;DHT22;10905;50.822;4.336;2023-02-18T11:09:54;12.00;99.90
21487;DHT22;10905;50.822;4.336;2023-02-18T11:13:06;12.10;99.90
21487;DHT22;10905;50.822;4.336;2023-02-18T11:16:44;12.10;99.90
21487;DHT22;10905;50.822;4.336;2023-02-18T11:19:51;12.20;99.90
21487;DHT22;10905;50.822;4.336;2023-02-18T11:23:21;12.20;99.90
21487;DHT22;10905;50.822;4.336;2023-02-18T11:26:31;12.10;99.90
21487;DHT22;10905;50.822;4.336;2023-02-18T11:29:22;12.00;99.90
21487;DHT22;10905;50.822;4.336;2023-02-18T11:31:53;12.10;99.90
21487;DHT22;10905;50.822;4.336;2023-02-18T11:34:23;12.20;99.90
21487;DHT22;10905;50.822;4.336;2023-02-18T11:37:20;12.10;99.90
21487;DHT22;10905;50.822;4.336;2023-02-18T11:39:49;12.10;99.90
21487;DHT22;10905;50.822;4.336;2023-02-18T11:42:24;12.20;99.90
21487;DHT22;10905;50.822;4.336;2023-02-18T11:44:57;12.20;99.90
21487;DHT22;10905;50.822;4.336;2023-02-18T11:47:26;12.20;99.90
21487;DHT22;10905;50.822;4.336;2023-02-18T11:50:16;12.20;99.90
21487;DHT22;10905;50.822;4.336;2023-02-18T11:53:29;12.20;99.90
21487;DHT22;10905;50.822;4.336;2023-02-18T11:57:15;12.30;99.90
21487;DHT22;10905;50.822;4.336;2023-02-18T12:07:05;12.30;99.90
21487;DHT22;10905;50.822;4.336;2023-02-18T12:10:00;12.30;99.90
21487;DHT22;10905;50.822;4.336;2023-02-18T12:13:37;12.40;99.90
21487;DHT22;10905;50.822;4.336;2023-02-18T12:26:28;12.40;99.90
21487;DHT22;10905;50.822;4.336;2023-02-18T12:32:38;12.40;99.90
21487;DHT22;10905;50.822;4.336;2023-02-18T12:38:46;12.50;99.90
21487;DHT22;10905;50.822;4.336;2023-02-18T12:41:53;12.50;99.90
21487;DHT22;10905;50.822;4.336;2023-02-18T12:58:24;12.60;99.90
21487;DHT22;10905;50.822;4.336;2023-02-18T13:14:48;12.40;99.90
21487;DHT22;10905;50.822;4.336;2023-02-18T13:17:36;12.20;99.90
21487;DHT22;10905;50.822;4.336;2023-02-18T13:20:48;12.20;99.90
21487;DHT22;10905;50.822;4.336;2023-02-18T13:24:12;12.10;99.90
21487;DHT22;10905;50.822;4.336;2023-02-18T13:26:50;12.00;99.90
21487;DHT22;10905;50.822;4.336;2023-02-18T13:30:47;12.00;99.90
21487;DHT22;10905;50.822;4.336;2023-02-18T13:39:33;11.70;99.90
21487;DHT22;10905;50.822;4.336;2023-02-18T13:42:35;11.70;99.90
21487;DHT22;10905;50.822;4.336;2023-02-18T13:52:30;11.60;99.90
21487;DHT22;10905;50.822;4.336;2023-02-18T13:56:03;11.50;99.90
21487;DHT22;10905;50.822;4.336;2023-02-18T13:59:43;11.60;99.90
21487;DHT22;10905;50.822;4.336;2023-02-18T14:16:08;11.50;99.90
21487;DHT22;10905;50.822;4.336;2023-02-18T14:19:30;11.40;99.90
21487;DHT22;10905;50.822;4.336;2023-02-18T14:25:48;11.40;99.90
21487;DHT22;10905;50.822;4.336;2023-02-18T14:28:43;11.40;99.90
21487;DHT22;10905;50.822;4.336;2023-02-18T14:31:49;11.40;99.90
21487;DHT22;10905;50.822;4.336;2023-02-18T14:50:12;11.50;99.90
21487;DHT22;10905;50.822;4.336;2023-02-18T14:53:13;11.60;99.90
21487;DHT22;10905;50.822;4.336;2023-02-18T14:56:16;11.60;99.90
21487;DHT22;10905;50.822;4.336;2023-02-18T14:59:16;11.70;99.90
21487;DHT22;10905;50.822;4.336;2023-02-18T15:02:36;11.70;99.90
21487;DHT22;10905;50.822;4.336;2023-02-18T15:05:36;11.70;99.90
21487;DHT22;10905;50.822;4.336;2023-02-18T15:08:38;11.70;99.90
21487;DHT22;10905;50.822;4.336;2023-02-18T15:15:26;11.80;99.90
21487;DHT22;10905;50.822;4.336;2023-02-18T15:18:17;11.90;99.90
21487;DHT22;10905;50.822;4.336;2023-02-18T15:21:38;11.90;99.90
21487;DHT22;10905;50.822;4.336;2023-02-18T15:24:50;11.80;99.90
21487;DHT22;10905;50.822;4.336;2023-02-18T15:27:45;11.80;99.90
21487;DHT22;10905;50.822;4.336;2023-02-18T15:30:48;11.80;99.90
21487;DHT22;10905;50.822;4.336;2023-02-18T15:33:23;11.80;99.90
21487;DHT22;10905;50.822;4.336;2023-02-18T15:36:25;11.80;99.90
21487;DHT22;10905;50.822;4.336;2023-02-18T15:39:41;11.70;99.90
21487;DHT22;10905;50.822;4.336;2023-02-18T15:42:36;11.70;99.90
21487;DHT22;10905;50.822;4.336;2023-02-18T15:46:11;11.80;99.90
21487;DHT22;10905;50.822;4.336;2023-02-18T15:56:37;11.70;99.90
21487;DHT22;10905;50.822;4.336;2023-02-18T15:59:30;11.70;99.90
21487;DHT22;10905;50.822;4.336;2023-02-18T16:07:14;11.70;99.90
21487;DHT22;10905;50.822;4.336;2023-02-18T16:10:48;11.80;99.90
21487;DHT22;10905;50.822;4.336;2023-02-18T16:13:37;11.80;99.90
21487;DHT22;10905;50.822;4.336;2023-02-18T16:17:04;11.80;99.90
21487;DHT22;10905;50.822;4.336;2023-02-18T16:19:54;11.80;99.90
21487;DHT22;10905;50.822;4.336;2023-02-18T16:24:58;11.80;99.90
21487;DHT22;10905;50.822;4.336;2023-02-18T16:27:45;11.80;99.90
21487;DHT22;10905;50.822;4.336;2023-02-18T16:30:25;11.80;99.90
21487;DHT22;10905;50.822;4.336;2023-02-18T16:33:13;11.70;99.90
21487;DHT22;10905;50.822;4.336;2023-02-18T16:36:03;11.70;99.90
21487;DHT22;10905;50.822;4.336;2023-02-18T16:39:14;11.80;99.90
21487;DHT22;10905;50.822;4.336;2023-02-18T16:42:24;11.80;99.90
21487;DHT22;10905;50.822;4.336;2023-02-18T16:45:44;11.90;99.90
21487;DHT22;10905;50.822;4.336;2023-02-18T16:48:56;11.80;99.90
21487;DHT22;10905;50.822;4.336;2023-02-18T16:52:15;11.80;99.90
21487;DHT22;10905;50.822;4.336;2023-02-18T16:55:26;11.90;99.90
21487;DHT22;10905;50.822;4.336;2023-02-18T16:58:22;11.90;99.90
21487;DHT22;10905;50.822;4.336;2023-02-18T17:01:23;11.90;99.90
21487;DHT22;10905;50.822;4.336;2023-02-18T17:04:06;11.90;99.90
21487;DHT22;10905;50.822;4.336;2023-02-18T17:06:39;11.90;99.90
21487;DHT22;10905;50.822;4.336;2023-02-18T17:09:50;11.90;99.90
21487;DHT22;10905;50.822;4.336;2023-02-18T17:13:33;11.90;99.90
21487;DHT22;10905;50.822;4.336;2023-02-18T17:17:10;11.90;99.90
21487;DHT22;10905;50.822;4.336;2023-02-18T17:19:56;11.80;99.90
21487;DHT22;10905;50.822;4.336;2023-02-18T17:22:43;11.80;99.90
21487;DHT22;10905;50.822;4.336;2023-02-18T17:26:14;11.90;99.90
21487;DHT22;10905;50.822;4.336;2023-02-18T17:29:32;11.80;99.90
21487;DHT22;10905;50.822;4.336;2023-02-18T17:32:26;11.80;99.90
21487;DHT22;10905;50.822;4.336;2023-02-18T17:35:25;11.80;99.90
21487;DHT22;10905;50.822;4.336;2023-02-18T17:38:37;11.80;99.90
21487;DHT22;10905;50.822;4.336;2023-02-18T17:41:58;11.80;99.90
21487;DHT22;10905;50.822;4.336;2023-02-18T17:48:48;11.70;99.90
21487;DHT22;10905;50.822;4.336;2023-02-18T17:51:30;11.70;99.90
21487;DHT22;10905;50.822;4.336;2023-02-18T17:54:37;11.70;99.90
21487;DHT22;10905;50.822;4.336;2023-02-18T17:57:41;11.70;99.90
21487;DHT22;10905;50.822;4.336;2023-02-18T18:01:01;11.70;99.90
21487;DHT22;10905;50.822;4.336;2023-02-18T18:03:34;11.80;99.90
21487;DHT22;10905;50.822;4.336;2023-02-18T18:06:18;11.80;99.90
21487;DHT22;10905;50.822;4.336;2023-02-18T18:08:44;11.70;99.90
21487;DHT22;10905;50.822;4.336;2023-02-18T18:11:14;11.60;99.90
21487;DHT22;10905;50.822;4.336;2023-02-18T18:13:41;11.60;99.90
21487;DHT22;10905;50.822;4.336;2023-02-18T18:16:09;11.60;99.90
21487;DHT22;10905;50.822;4.336;2023-02-18T18:18:36;11.60;99.90
21487;DHT22;10905;50.822;4.336;2023-02-18T18:21:01;11.60;99.90
21487;DHT22;10905;50.822;4.336;2023-02-18T18:23:31;11.60;99.90
21487;DHT22;10905;50.822;4.336;2023-02-18T18:26:10;11.70;99.90
21487;DHT22;10905;50.822;4.336;2023-02-18T18:29:18;11.70;99.90
21487;DHT22;10905;50.822;4.336;2023-02-18T18:32:11;11.60;99.90
21487;DHT22;10905;50.822;4.336;2023-02-18T18:35:39;11.50;99.90
21487;DHT22;10905;50.822;4.336;2023-02-18T18:39:09;11.50;99.90
21487;DHT22;10905;50.822;4.336;2023-02-18T18:42:18;11.50;99.90
21487;DHT22;10905;50.822;4.336;2023-02-18T18:45:19;11.50;99.90
21487;DHT22;10905;50.822;4.336;2023-02-18T18:48:54;11.50;99.90
21487;DHT22;10905;50.822;4.336;2023-02-18T18:52:09;11.50;99.90
21487;DHT22;10905;50.822;4.336;2023-02-18T18:55:32;11.50;99.90
21487;DHT22;10905;50.822;4.336;2023-02-18T19:02:26;11.50;99.90
21487;DHT22;10905;50.822;4.336;2023-02-18T19:05:31;11.50;99.90
21487;DHT22;10905;50.822;4.336;2023-02-18T19:08:40;11.50;99.90
21487;DHT22;10905;50.822;4.336;2023-02-18T19:12:09;11.40;99.90
21487;DHT22;10905;50.822;4.336;2023-02-18T19:15:19;11.40;99.90
21487;DHT22;10905;50.822;4.336;2023-02-18T19:18:17;11.30;99.90
21487;DHT22;10905;50.822;4.336;2023-02-18T19:20:55;11.40;99.90
21487;DHT22;10905;50.822;4.336;2023-02-18T19:23:21;11.30;99.90
21487;DHT22;10905;50.822;4.336;2023-02-18T19:25:46;11.20;99.90
21487;DHT22;10905;50.822;4.336;2023-02-18T19:28:12;11.20;99.90
21487;DHT22;10905;50.822;4.336;2023-02-18T19:30:40;11.20;99.90
21487;DHT22;10905;50.822;4.336;2023-02-18T19:33:07;11.20;99.90
21487;DHT22;10905;50.822;4.336;2023-02-18T19:35:53;11.20;99.90
21487;DHT22;10905;50.822;4.336;2023-02-18T19:38:44;11.10;99.90
21487;DHT22;10905;50.822;4.336;2023-02-18T19:42:06;11.20;99.90
21487;DHT22;10905;50.822;4.336;2023-02-18T19:45:34;11.20;99.90
21487;DHT22;10905;50.822;4.336;2023-02-18T19:51:52;11.10;99.90
21487;DHT22;10905;50.822;4.336;2023-02-18T19:54:18;11.10;99.90
21487;DHT22;10905;50.822;4.336;2023-02-18T19:56:48;11.10;99.90
21487;DHT22;10905;50.822;4.336;2023-02-18T19:59:35;11.10;99.90
21487;DHT22;10905;50.822;4.336;2023-02-18T20:02:02;11.10;99.90
21487;DHT22;10905;50.822;4.336;2023-02-18T20:04:27;11.10;99.90
21487;DHT22;10905;50.822;4.336;2023-02-18T20:06:53;11.10;99.90
21487;DHT22;10905;50.822;4.336;2023-02-18T20:09:19;11.10;99.90
21487;DHT22;10905;50.822;4.336;2023-02-18T20:11:44;11.20;99.90
21487;DHT22;10905;50.822;4.336;2023-02-18T20:14:12;11.20;99.90
21487;DHT22;10905;50.822;4.336;2023-02-18T20:16:37;11.20;99.90
21487;DHT22;10905;50.822;4.336;2023-02-18T20:19:03;11.20;99.90
21487;DHT22;10905;50.822;4.336;2023-02-18T20:21:28;11.20;99.90
21487;DHT22;10905;50.822;4.336;2023-02-18T20:23:55;11.20;99.90
21487;DHT22;10905;50.822;4.336;2023-02-18T20:26:21;11.20;99.90
21487;DHT22;10905;50.822;4.336;2023-02-18T20:28:47;11.20;99.90
21487;DHT22;10905;50.822;4.336;2023-02-18T20:31:13;11.20;99.90
21487;DHT22;10905;50.822;4.336;2023-02-18T20:33:39;11.20;99.90
21487;DHT22;10905;50.822;4.336;2023-02-18T20:36:07;11.20;99.90
21487;DHT22;10905;50.822;4.336;2023-02-18T20:38:33;11.20;99.90
21487;DHT22;10905;50.822;4.336;2023-02-18T20:41:10;11.20;99.90
21487;DHT22;10905;50.822;4.336;2023-02-18T20:43:38;11.20;99.90
21487;DHT22;10905;50.822;4.336;2023-02-18T20:46:06;11.20;99.90
21487;DHT22;10905;50.822;4.336;2023-02-18T20:48:33;11.20;99.90